LEBZ/BJZ METAR and TAF weather

Enter ICAO airport designator
Station Type Date Time Source
LEBZ METAR 2021/01/22 07:30 UTC NOAA

LEBZ 220730Z 26017KT 9999 SCT030 12/07 Q1015


Station Type Date Time Source
LEBZ Decoded METAR 2021/01/22 07:30 UTC NOAA

Badajoz / Talavera La Real, Spain (LEBZ) 38-53N 006-49W 192M
Jan 22, 2021 - 02:30 AM EST / 2021.01.22 0730 UTC
Wind: from the W (260 degrees) at 20 MPH (17 KT):0
Visibility: greater than 7 mile(s):0
Sky conditions: partly cloudy
Temperature: 53 F (12 C)
Dew Point: 44 F (7 C)
Relative Humidity: 71%
Pressure (altimeter): 29.97 in. Hg (1015 hPa)
ob: LEBZ 220730Z 26017KT 9999 SCT030 12/07 Q1015
cycle: 7

Station Type Date Time Source
LEBZ TAF 2021/01/22 06:27 UTC NOAA

TAF LEBZ 220500Z 2206/2306 26016KT 9999 SCT015 BKN030 TX14/2215Z TN07/2306Z PROB40
TEMPO 2209/2217 26022G32KT 4000 -RA BKN014

Example: see airport list